createdAt,value
2018-07-28T00:00:05.775Z,21.90
2018-07-28T00:01:10.341Z,21.90
2018-07-28T00:02:05.884Z,21.90
2018-07-28T00:03:05.575Z,21.90
2018-07-28T00:04:05.271Z,21.80
2018-07-28T00:05:05.908Z,21.80
2018-07-28T00:06:06.434Z,21.80
2018-07-28T00:07:06.133Z,21.70
2018-07-28T00:08:05.599Z,21.70
2018-07-28T00:09:12.814Z,21.60
2018-07-28T00:10:05.203Z,21.60
2018-07-28T00:11:05.835Z,21.60
2018-07-28T00:12:10.578Z,21.60
2018-07-28T00:13:16.109Z,21.60
2018-07-28T00:14:05.911Z,21.60
2018-07-28T00:15:07.932Z,21.60
2018-07-28T00:16:05.283Z,21.50
2018-07-28T00:17:06.254Z,21.60
2018-07-28T00:18:05.399Z,21.50
2018-07-28T00:19:08.450Z,21.50
2018-07-28T00:20:05.936Z,21.50
2018-07-28T00:21:05.801Z,21.50
2018-07-28T00:22:05.258Z,21.40
2018-07-28T00:23:05.825Z,21.40
2018-07-28T00:24:07.922Z,21.40
2018-07-28T00:25:07.996Z,21.40
2018-07-28T00:26:05.443Z,21.40
2018-07-28T00:27:06.511Z,21.40
2018-07-28T00:28:08.219Z,21.40
2018-07-28T00:29:05.712Z,21.40
2018-07-28T00:30:05.279Z,21.40
2018-07-28T00:31:05.429Z,21.30
2018-07-28T00:32:09.180Z,21.30
2018-07-28T00:33:05.504Z,21.40
2018-07-28T00:34:07.749Z,21.30
2018-07-28T00:35:05.538Z,21.30
2018-07-28T00:36:05.378Z,21.30
2018-07-28T00:37:05.887Z,21.30
2018-07-28T00:38:05.459Z,21.30
2018-07-28T00:39:08.903Z,21.20
2018-07-28T00:40:05.757Z,21.20
2018-07-28T00:41:05.245Z,21.20
2018-07-28T00:42:05.107Z,21.20
2018-07-28T00:43:07.746Z,21.10
2018-07-28T00:44:07.822Z,21.10
2018-07-28T00:45:05.445Z,21.10
2018-07-28T00:46:06.593Z,21.10
2018-07-28T00:47:05.702Z,21.10
2018-07-28T00:48:07.780Z,21.00
2018-07-28T00:49:07.971Z,21.00
2018-07-28T00:50:05.840Z,21.00
2018-07-28T00:51:05.920Z,21.00
2018-07-28T00:52:08.037Z,21.00
2018-07-28T00:53:08.303Z,21.00
2018-07-28T00:54:05.823Z,20.90
2018-07-28T00:55:05.486Z,21.00
2018-07-28T00:56:05.575Z,20.90
2018-07-28T00:57:05.538Z,20.90
2018-07-28T00:58:05.886Z,20.90
2018-07-28T00:59:08.121Z,20.90
2018-07-28T01:00:08.511Z,20.90
2018-07-28T01:01:05.930Z,20.80
2018-07-28T01:02:05.433Z,20.80
2018-07-28T01:03:06.240Z,20.80
2018-07-28T01:04:05.801Z,20.80
2018-07-28T01:05:07.888Z,20.80
2018-07-28T01:06:05.634Z,20.80
2018-07-28T01:07:05.124Z,20.80
2018-07-28T01:08:05.674Z,20.80
2018-07-28T01:09:05.256Z,20.80
2018-07-28T01:10:05.161Z,20.80
2018-07-28T01:11:08.402Z,20.80
2018-07-28T01:12:05.941Z,20.80
2018-07-28T01:13:06.608Z,20.80
2018-07-28T01:14:07.589Z,20.80
2018-07-28T01:15:08.660Z,20.80
2018-07-28T01:16:05.025Z,20.70
2018-07-28T01:17:07.611Z,20.80
2018-07-28T01:18:06.002Z,20.70
2018-07-28T01:19:07.942Z,20.70
2018-07-28T01:20:11.152Z,20.70
2018-07-28T01:21:08.012Z,20.70
2018-07-28T01:22:05.419Z,20.70
2018-07-28T01:23:05.928Z,20.70
2018-07-28T01:24:05.882Z,20.80
2018-07-28T01:25:05.908Z,20.80
2018-07-28T01:26:05.582Z,20.80
2018-07-28T01:27:05.069Z,20.70
2018-07-28T01:28:05.983Z,20.70
2018-07-28T01:29:08.035Z,20.70
2018-07-28T01:30:05.519Z,20.70
2018-07-28T01:31:08.126Z,20.70
2018-07-28T01:32:05.628Z,20.70
2018-07-28T01:33:07.947Z,20.70
2018-07-28T01:34:05.641Z,20.70
2018-07-28T01:35:05.252Z,20.70
2018-07-28T01:36:06.007Z,20.70
2018-07-28T01:37:08.389Z,20.70
2018-07-28T01:38:10.890Z,20.70
2018-07-28T01:39:05.340Z,20.70
2018-07-28T01:40:06.336Z,20.70
2018-07-28T01:41:05.788Z,20.70
2018-07-28T01:42:08.233Z,20.70
2018-07-28T01:43:08.432Z,20.70
2018-07-28T01:44:05.951Z,20.70
2018-07-28T01:45:05.855Z,20.70
2018-07-28T01:46:05.359Z,20.70
2018-07-28T01:47:10.899Z,20.70
2018-07-28T01:48:05.476Z,20.60
2018-07-28T01:49:05.385Z,20.60
2018-07-28T01:50:06.509Z,20.50
2018-07-28T01:51:08.870Z,20.40
2018-07-28T01:52:05.284Z,20.40
2018-07-28T01:53:05.782Z,20.50
2018-07-28T01:54:05.323Z,20.40
2018-07-28T01:55:06.048Z,20.40
2018-07-28T01:56:08.275Z,20.30
2018-07-28T01:57:05.662Z,20.30
2018-07-28T01:58:05.681Z,20.30
2018-07-28T01:59:05.352Z,20.30
2018-07-28T02:00:08.441Z,20.30
2018-07-28T02:01:10.424Z,20.30
2018-07-28T02:02:05.817Z,20.30
2018-07-28T02:03:05.320Z,20.20
2018-07-28T02:04:06.054Z,20.30
2018-07-28T02:05:05.701Z,20.20
2018-07-28T02:06:05.356Z,20.30
2018-07-28T02:07:06.257Z,20.30
2018-07-28T02:08:05.871Z,20.30
2018-07-28T02:09:05.632Z,20.20
2018-07-28T02:10:05.518Z,20.20
2018-07-28T02:11:06.127Z,20.20
2018-07-28T02:12:05.922Z,20.20
2018-07-28T02:13:08.244Z,20.20
2018-07-28T02:14:05.216Z,20.10
2018-07-28T02:15:07.764Z,20.10
2018-07-28T02:16:07.801Z,20.10
2018-07-28T02:17:05.299Z,20.10
2018-07-28T02:18:06.356Z,20.10
2018-07-28T02:19:05.773Z,20.10
2018-07-28T02:20:05.572Z,20.10
2018-07-28T02:21:05.045Z,20.10
2018-07-28T02:22:08.445Z,20.00
2018-07-28T02:23:05.916Z,20.00
2018-07-28T02:24:05.715Z,20.00
2018-07-28T02:25:07.959Z,20.00
2018-07-28T02:26:07.848Z,19.90
2018-07-28T02:27:05.300Z,19.90
2018-07-28T02:28:05.855Z,19.90
2018-07-28T02:29:05.573Z,19.90
2018-07-28T02:30:05.076Z,19.90
2018-07-28T02:31:05.979Z,19.90
2018-07-28T02:32:05.577Z,19.90
2018-07-28T02:33:07.774Z,19.80
2018-07-28T02:34:07.721Z,19.80
2018-07-28T02:35:05.179Z,19.80
2018-07-28T02:36:09.333Z,19.70
2018-07-28T02:37:05.633Z,19.70
2018-07-28T02:38:07.825Z,19.60
2018-07-28T02:39:10.539Z,19.70
2018-07-28T02:40:05.925Z,19.60
2018-07-28T02:41:07.997Z,19.60
2018-07-28T02:42:07.939Z,19.60
2018-07-28T02:43:06.148Z,19.50
2018-07-28T02:44:09.175Z,19.50
2018-07-28T02:45:08.040Z,19.50
2018-07-28T02:46:05.442Z,19.50
2018-07-28T02:47:06.008Z,19.50
2018-07-28T02:48:05.829Z,19.40
2018-07-28T02:49:05.725Z,19.40
2018-07-28T02:50:05.277Z,19.40
2018-07-28T02:51:06.021Z,19.40
2018-07-28T02:52:05.472Z,19.40
2018-07-28T02:53:05.191Z,19.40
2018-07-28T02:54:08.153Z,19.40
2018-07-28T02:55:05.533Z,19.40
2018-07-28T02:56:04.986Z,19.40
2018-07-28T02:57:05.769Z,19.40
2018-07-28T02:58:07.821Z,19.40
2018-07-28T02:59:10.726Z,19.40
2018-07-28T03:00:05.295Z,19.40
2018-07-28T03:01:10.924Z,19.40
2018-07-28T03:02:07.965Z,19.40
2018-07-28T03:03:07.898Z,19.40
2018-07-28T03:04:05.707Z,19.40
2018-07-28T03:05:05.341Z,19.40
2018-07-28T03:06:05.979Z,19.40
2018-07-28T03:07:06.061Z,19.40
2018-07-28T03:08:05.708Z,19.40
2018-07-28T03:09:05.262Z,19.40
2018-07-28T03:10:07.613Z,19.30
2018-07-28T03:11:05.973Z,19.30
2018-07-28T03:12:05.048Z,19.30
2018-07-28T03:13:08.015Z,19.20
2018-07-28T03:14:05.526Z,19.20
2018-07-28T03:15:08.627Z,19.20
2018-07-28T03:16:07.572Z,19.30
2018-07-28T03:17:05.137Z,19.20
2018-07-28T03:18:05.974Z,19.20
2018-07-28T03:19:05.554Z,19.30
2018-07-28T03:20:05.566Z,19.20
2018-07-28T03:21:05.587Z,19.20
2018-07-28T03:22:05.113Z,19.20
2018-07-28T03:23:08.315Z,19.20
2018-07-28T03:24:05.596Z,19.20
2018-07-28T03:25:05.152Z,19.20
2018-07-28T03:26:06.090Z,19.20
2018-07-28T03:27:08.219Z,19.20
2018-07-28T03:28:08.292Z,19.10
2018-07-28T03:29:05.777Z,19.10
2018-07-28T03:30:07.879Z,19.10
2018-07-28T03:31:07.920Z,19.00
2018-07-28T03:32:05.748Z,19.00
2018-07-28T03:33:05.391Z,19.00
2018-07-28T03:34:05.982Z,19.00
2018-07-28T03:35:08.218Z,19.00
2018-07-28T03:36:05.703Z,19.00
2018-07-28T03:37:05.184Z,19.00
2018-07-28T03:38:05.453Z,19.10
2018-07-28T03:39:05.124Z,19.10
2018-07-28T03:40:08.291Z,19.10
2018-07-28T03:41:05.846Z,19.10
2018-07-28T03:42:05.760Z,19.10
2018-07-28T03:43:05.575Z,19.10
2018-07-28T03:44:07.744Z,19.00
2018-07-28T03:45:07.934Z,19.00
2018-07-28T03:46:05.301Z,19.00
2018-07-28T03:47:06.269Z,19.00
2018-07-28T03:48:08.333Z,18.90
2018-07-28T03:49:05.612Z,18.90
2018-07-28T03:50:05.374Z,19.00
2018-07-28T03:51:06.014Z,19.00
2018-07-28T03:52:05.696Z,19.00
2018-07-28T03:53:05.254Z,19.00
2018-07-28T03:54:05.812Z,19.00
2018-07-28T03:55:07.837Z,19.00
2018-07-28T03:56:05.251Z,19.00
2018-07-28T03:57:06.005Z,19.00
2018-07-28T03:58:08.127Z,19.00
2018-07-28T03:59:05.542Z,19.00
2018-07-28T04:00:05.134Z,19.10
2018-07-28T04:01:05.577Z,19.10
2018-07-28T04:02:05.535Z,19.00
2018-07-28T04:03:06.091Z,19.10
2018-07-28T04:04:10.804Z,19.10
2018-07-28T04:05:05.410Z,19.10
2018-07-28T04:06:06.090Z,19.10
2018-07-28T04:07:05.652Z,19.10
2018-07-28T04:08:08.114Z,19.10
2018-07-28T04:09:08.116Z,19.10
2018-07-28T04:10:05.568Z,19.10
2018-07-28T04:11:07.592Z,19.10
2018-07-28T04:12:05.885Z,19.10
2018-07-28T04:13:05.421Z,19.10
2018-07-28T04:14:08.073Z,19.20
2018-07-28T04:15:06.292Z,19.10
2018-07-28T04:16:08.288Z,19.20
2018-07-28T04:17:05.738Z,19.10
2018-07-28T04:18:05.445Z,19.20
2018-07-28T04:19:05.989Z,19.30
2018-07-28T04:20:05.597Z,19.30
2018-07-28T04:21:10.120Z,19.50
2018-07-28T04:22:10.750Z,19.60
2018-07-28T04:23:05.148Z,19.60
2018-07-28T04:24:06.191Z,19.80
2018-07-28T04:25:09.717Z,20.00
2018-07-28T04:26:05.458Z,19.90
2018-07-28T04:27:06.382Z,20.10
2018-07-28T04:28:05.963Z,20.10
2018-07-28T04:29:05.531Z,20.30
2018-07-28T04:30:05.083Z,20.40
2018-07-28T04:31:05.867Z,20.50
2018-07-28T04:32:05.480Z,20.60
2018-07-28T04:33:06.003Z,20.70
2018-07-28T04:34:08.212Z,20.90
2018-07-28T04:35:08.194Z,21.00
2018-07-28T04:36:05.618Z,21.10
2018-07-28T04:37:05.664Z,21.20
2018-07-28T04:38:05.318Z,21.30
2018-07-28T04:39:08.325Z,21.50
2018-07-28T04:40:08.203Z,21.70
2018-07-28T04:41:05.936Z,21.70
2018-07-28T04:42:08.142Z,21.90
2018-07-28T04:43:05.539Z,21.90
2018-07-28T04:44:05.356Z,22.10
2018-07-28T04:45:05.471Z,22.10
2018-07-28T04:46:05.950Z,22.30
2018-07-28T04:47:07.975Z,22.50
2018-07-28T04:48:08.182Z,22.70
2018-07-28T04:49:05.865Z,22.70
2018-07-28T04:50:05.451Z,22.70
2018-07-28T04:51:06.149Z,22.90
2018-07-28T04:52:08.277Z,23.10
2018-07-28T04:53:05.730Z,23.10
2018-07-28T04:54:10.304Z,23.30
2018-07-28T04:55:08.250Z,23.50
2018-07-28T04:56:05.660Z,23.50
2018-07-28T04:57:05.167Z,23.60
2018-07-28T04:58:05.656Z,23.70
2018-07-28T04:59:10.222Z,24.00
2018-07-28T05:00:05.654Z,24.00
2018-07-28T05:01:05.350Z,24.10
2018-07-28T05:02:05.442Z,24.20
2018-07-28T05:03:06.036Z,24.30
2018-07-28T05:04:05.629Z,24.40
2018-07-28T05:05:07.735Z,24.60
2018-07-28T05:06:05.057Z,24.50
2018-07-28T05:07:06.162Z,24.60
2018-07-28T05:08:10.728Z,24.80
2018-07-28T05:09:05.122Z,24.80
2018-07-28T05:10:05.743Z,24.90
2018-07-28T05:11:05.270Z,25.00
2018-07-28T05:12:15.916Z,25.20
2018-07-28T05:13:05.385Z,25.20
2018-07-28T05:14:07.674Z,25.40
2018-07-28T05:15:07.612Z,25.40
2018-07-28T05:16:06.259Z,25.40
2018-07-28T05:17:06.116Z,25.50
2018-07-28T05:18:06.014Z,25.60
2018-07-28T05:19:05.452Z,25.70
2018-07-28T05:20:05.357Z,25.70
2018-07-28T05:21:06.132Z,25.80
2018-07-28T05:22:05.660Z,25.90
2018-07-28T05:23:05.378Z,26.00
2018-07-28T05:24:06.026Z,26.00
2018-07-28T05:25:08.301Z,26.30
2018-07-28T05:26:05.883Z,26.20
2018-07-28T05:27:08.611Z,26.40
2018-07-28T05:28:10.924Z,26.40
2018-07-28T05:29:06.201Z,26.40
2018-07-28T05:30:08.723Z,26.60
2018-07-28T05:31:05.301Z,26.60
2018-07-28T05:32:05.931Z,26.60
2018-07-28T05:33:05.530Z,26.70
2018-07-28T05:34:05.980Z,26.80
2018-07-28T05:35:10.685Z,26.90
2018-07-28T05:36:05.223Z,27.00
2018-07-28T05:37:05.091Z,27.00
2018-07-28T05:38:08.258Z,27.20
2018-07-28T05:39:05.672Z,27.20
2018-07-28T05:40:05.538Z,27.20
2018-07-28T05:41:08.602Z,27.40
2018-07-28T05:42:08.458Z,27.50
2018-07-28T05:43:06.024Z,27.50
2018-07-28T05:44:05.971Z,27.60
2018-07-28T05:45:07.994Z,27.70
2018-07-28T05:46:08.011Z,27.80
2018-07-28T05:47:07.923Z,27.80
2018-07-28T05:48:05.685Z,27.80
2018-07-28T05:49:05.253Z,27.90
2018-07-28T05:50:08.622Z,28.00
2018-07-28T05:51:10.827Z,28.10
2018-07-28T05:52:05.195Z,28.10
2018-07-28T05:53:05.744Z,28.20
2018-07-28T05:54:05.283Z,28.20
2018-07-28T05:55:06.161Z,28.30
2018-07-28T05:56:05.789Z,28.40
2018-07-28T05:57:05.262Z,28.50
2018-07-28T05:58:08.704Z,28.70
2018-07-28T05:59:05.613Z,28.60
2018-07-28T06:00:05.349Z,28.70
2018-07-28T06:01:08.480Z,28.80
2018-07-28T06:02:05.896Z,28.80
2018-07-28T06:03:05.914Z,28.80
2018-07-28T06:04:06.014Z,28.80
2018-07-28T06:05:05.871Z,28.90
2018-07-28T06:06:05.394Z,29.00
2018-07-28T06:07:06.124Z,29.00
2018-07-28T06:08:08.318Z,29.10
2018-07-28T06:09:05.828Z,29.10
2018-07-28T06:10:08.249Z,29.30
2018-07-28T06:11:05.701Z,29.30
2018-07-28T06:12:05.201Z,29.30
2018-07-28T06:13:05.379Z,29.40
2018-07-28T06:14:07.725Z,29.50
2018-07-28T06:15:05.350Z,29.50
2018-07-28T06:16:05.963Z,29.50
2018-07-28T06:17:05.942Z,29.60
2018-07-28T06:18:05.681Z,29.70
2018-07-28T06:19:07.694Z,29.80
2018-07-28T06:20:06.000Z,29.80
2018-07-28T06:21:05.973Z,29.90
2018-07-28T06:22:10.746Z,29.90
2018-07-28T06:23:07.740Z,30.00
2018-07-28T06:24:10.259Z,30.00
2018-07-28T06:25:07.881Z,30.10
2018-07-28T06:26:05.323Z,30.10
2018-07-28T06:27:05.154Z,30.20
2018-07-28T06:28:05.794Z,30.20
2018-07-28T06:29:07.863Z,30.20
2018-07-28T06:30:07.776Z,30.30
2018-07-28T06:31:05.166Z,30.20
2018-07-28T06:32:05.238Z,30.30
2018-07-28T06:33:07.758Z,30.40
2018-07-28T06:34:05.128Z,30.40
2018-07-28T06:35:05.611Z,30.50
2018-07-28T06:36:07.936Z,30.50
2018-07-28T06:37:10.424Z,30.50
2018-07-28T06:38:05.797Z,30.60
2018-07-28T06:39:07.820Z,30.70
2018-07-28T06:40:07.768Z,30.70
2018-07-28T06:41:07.724Z,30.70
2018-07-28T06:42:06.042Z,30.70
2018-07-28T06:43:05.627Z,30.80
2018-07-28T06:44:08.064Z,30.90
2018-07-28T06:45:08.098Z,30.90
2018-07-28T06:46:08.050Z,31.00
2018-07-28T06:47:05.803Z,31.00
2018-07-28T06:48:05.667Z,31.10
2018-07-28T06:49:05.123Z,31.20
2018-07-28T06:50:10.861Z,31.20
2018-07-28T06:51:05.219Z,31.30
2018-07-28T06:52:05.825Z,31.30
2018-07-28T06:53:07.858Z,31.40
2018-07-28T06:54:10.285Z,31.40
2018-07-28T06:55:10.697Z,31.50
2018-07-28T06:56:05.057Z,31.50
2018-07-28T06:57:08.493Z,31.50
2018-07-28T06:58:08.599Z,31.60
2018-07-28T06:59:08.744Z,31.60
2018-07-28T07:00:05.359Z,31.60
2018-07-28T07:01:08.474Z,31.70
2018-07-28T07:02:05.650Z,31.70
2018-07-28T07:03:05.499Z,31.70
2018-07-28T07:04:05.122Z,31.70
2018-07-28T07:05:05.633Z,31.70
2018-07-28T07:06:05.620Z,31.70
2018-07-28T07:07:05.115Z,31.80
2018-07-28T07:08:05.746Z,31.80
2018-07-28T07:09:07.816Z,31.90
2018-07-28T07:10:05.291Z,31.90
2018-07-28T07:11:06.209Z,31.90
2018-07-28T07:12:05.698Z,32.00
2018-07-28T07:13:08.169Z,32.10
2018-07-28T07:14:05.913Z,32.10
2018-07-28T07:15:05.496Z,32.10
2018-07-28T07:16:06.191Z,32.20
2018-07-28T07:17:05.980Z,32.30
2018-07-28T07:18:05.647Z,32.20
2018-07-28T07:19:05.287Z,32.30
2018-07-28T07:20:08.449Z,32.40
2018-07-28T07:21:06.374Z,32.40
2018-07-28T07:22:05.871Z,32.40
2018-07-28T07:23:05.832Z,32.50
2018-07-28T07:24:05.710Z,32.50
2018-07-28T07:25:07.874Z,32.60
2018-07-28T07:26:05.324Z,32.60
2018-07-28T07:27:06.025Z,32.70
2018-07-28T07:28:05.511Z,32.70
2018-07-28T07:29:07.945Z,32.70
2018-07-28T07:30:05.267Z,32.70
2018-07-28T07:31:05.889Z,32.70
2018-07-28T07:32:05.963Z,32.70
2018-07-28T07:33:13.468Z,32.80
2018-07-28T07:34:08.487Z,32.80
2018-07-28T07:35:05.977Z,32.70
2018-07-28T07:36:05.953Z,32.70
2018-07-28T07:37:07.735Z,32.80
2018-07-28T07:38:05.102Z,32.80
2018-07-28T07:39:05.652Z,32.80
2018-07-28T07:40:08.051Z,32.80
2018-07-28T07:41:05.421Z,32.80
2018-07-28T07:42:11.005Z,32.80
2018-07-28T07:43:08.129Z,32.80
2018-07-28T07:44:05.901Z,32.80
2018-07-28T07:45:05.451Z,32.80
2018-07-28T07:46:06.196Z,32.90
2018-07-28T07:47:05.809Z,32.90
2018-07-28T07:48:05.335Z,32.90
2018-07-28T07:49:08.732Z,32.90
2018-07-28T07:50:13.092Z,32.80
2018-07-28T07:51:05.465Z,32.90
2018-07-28T07:52:05.944Z,32.90
2018-07-28T07:53:10.621Z,32.90
2018-07-28T07:54:08.657Z,32.90
2018-07-28T07:55:06.032Z,32.90
2018-07-28T07:56:08.247Z,32.90
2018-07-28T07:57:05.249Z,32.80
2018-07-28T07:58:05.884Z,32.90
2018-07-28T07:59:05.545Z,32.90
2018-07-28T08:00:07.629Z,32.90
2018-07-28T08:01:08.736Z,33.00
2018-07-28T08:02:08.273Z,33.00
2018-07-28T08:03:06.035Z,32.90
2018-07-28T08:04:05.642Z,33.00
2018-07-28T08:05:05.234Z,33.00
2018-07-28T08:06:05.726Z,33.00
2018-07-28T08:07:05.388Z,33.00
2018-07-28T08:08:05.932Z,33.00
2018-07-28T08:09:05.703Z,32.90
2018-07-28T08:10:10.420Z,32.90
2018-07-28T08:11:08.396Z,32.90
2018-07-28T08:12:08.336Z,32.90
2018-07-28T08:13:10.842Z,32.90
2018-07-28T08:14:05.096Z,32.90
2018-07-28T08:15:05.560Z,32.90
2018-07-28T08:16:05.260Z,32.90
2018-07-28T08:17:05.823Z,32.90
2018-07-28T08:18:05.525Z,32.90
2018-07-28T08:19:07.718Z,32.90
2018-07-28T08:20:06.023Z,32.90
2018-07-28T08:21:06.184Z,32.90
2018-07-28T08:22:05.895Z,32.90
2018-07-28T08:23:05.370Z,32.90
2018-07-28T08:24:05.209Z,32.90
2018-07-28T08:25:05.798Z,33.00
2018-07-28T08:26:05.302Z,33.00
2018-07-28T08:27:08.401Z,33.10
2018-07-28T08:28:05.895Z,33.10
2018-07-28T08:29:05.830Z,33.10
2018-07-28T08:30:05.578Z,33.20
2018-07-28T08:31:05.129Z,33.10
2018-07-28T08:32:08.334Z,33.30
2018-07-28T08:33:05.771Z,33.20
2018-07-28T08:34:05.646Z,33.30
2018-07-28T08:35:05.629Z,33.30
2018-07-28T08:36:10.372Z,33.40
2018-07-28T08:37:05.760Z,33.40
2018-07-28T08:38:05.225Z,33.50
2018-07-28T08:39:05.779Z,33.50
2018-07-28T08:40:05.372Z,33.50
2018-07-28T08:41:05.195Z,33.60
2018-07-28T08:42:08.172Z,33.60
2018-07-28T08:43:05.206Z,33.60
2018-07-28T08:44:08.265Z,33.60
2018-07-28T08:45:10.701Z,33.60
2018-07-28T08:46:05.206Z,33.60
2018-07-28T08:47:05.697Z,33.60
2018-07-28T08:48:10.243Z,33.70
2018-07-28T08:49:08.323Z,33.70
2018-07-28T08:50:06.201Z,33.70
2018-07-28T08:51:05.750Z,33.70
2018-07-28T08:52:07.772Z,33.90
2018-07-28T08:53:05.685Z,33.90
2018-07-28T08:54:10.365Z,33.90
2018-07-28T08:55:08.325Z,33.80
2018-07-28T08:56:05.797Z,33.80
2018-07-28T08:57:05.282Z,33.70
2018-07-28T08:58:05.949Z,33.60
2018-07-28T08:59:08.064Z,33.50
2018-07-28T09:00:05.457Z,33.60
2018-07-28T09:01:05.343Z,33.50
2018-07-28T09:02:05.366Z,33.50
2018-07-28T09:03:06.207Z,33.60
2018-07-28T09:04:05.496Z,33.60
2018-07-28T09:05:05.967Z,33.60
2018-07-28T09:06:05.241Z,33.60
2018-07-28T09:07:05.232Z,33.60
2018-07-28T09:08:05.998Z,33.60
2018-07-28T09:09:05.470Z,33.60
2018-07-28T09:10:05.243Z,33.60
2018-07-28T09:11:05.195Z,33.60
2018-07-28T09:12:05.709Z,33.60
2018-07-28T09:13:05.527Z,33.50
2018-07-28T09:14:06.025Z,33.60
2018-07-28T09:15:05.576Z,33.60
2018-07-28T09:16:05.520Z,33.60
2018-07-28T09:17:06.104Z,33.70
2018-07-28T09:18:06.271Z,33.70
2018-07-28T09:19:08.313Z,33.70
2018-07-28T09:20:05.672Z,33.70
2018-07-28T09:21:05.605Z,33.70
2018-07-28T09:22:05.106Z,33.70
2018-07-28T09:23:08.605Z,33.80
2018-07-28T09:24:05.213Z,33.80
2018-07-28T09:25:08.398Z,33.80
2018-07-28T09:26:05.786Z,33.80
2018-07-28T09:27:05.295Z,33.80
2018-07-28T09:28:05.237Z,33.90
2018-07-28T09:29:05.935Z,33.90
2018-07-28T09:30:05.608Z,33.90
2018-07-28T09:31:05.498Z,33.90
2018-07-28T09:32:05.969Z,33.90
2018-07-28T09:33:05.563Z,33.90
2018-07-28T09:34:06.031Z,33.80
2018-07-28T09:35:08.002Z,33.70
2018-07-28T09:36:05.396Z,33.70
2018-07-28T09:37:05.465Z,33.60
2018-07-28T09:38:05.310Z,33.60
2018-07-28T09:39:08.296Z,33.50
2018-07-28T09:40:05.579Z,33.40
2018-07-28T09:41:05.574Z,33.50
2018-07-28T09:42:05.164Z,33.50
2018-07-28T09:43:05.693Z,33.40
2018-07-28T09:44:07.746Z,33.30
2018-07-28T09:45:05.058Z,33.30
2018-07-28T09:46:08.068Z,33.20
2018-07-28T09:47:05.408Z,33.20
2018-07-28T09:48:05.776Z,33.10
2018-07-28T09:49:05.719Z,33.10
2018-07-28T09:50:05.396Z,33.00
2018-07-28T09:51:11.154Z,32.90
2018-07-28T09:52:05.986Z,32.80
2018-07-28T09:53:08.192Z,32.70
2018-07-28T09:54:10.833Z,32.60
2018-07-28T09:55:05.311Z,32.60
2018-07-28T09:56:06.381Z,32.60
2018-07-28T09:57:11.131Z,32.50
2018-07-28T09:58:05.525Z,32.50
2018-07-28T09:59:05.564Z,32.50
2018-07-28T10:00:08.616Z,32.40
2018-07-28T10:01:05.720Z,32.40
2018-07-28T10:02:08.083Z,32.40
2018-07-28T10:03:05.841Z,32.40
2018-07-28T10:04:05.459Z,32.40
2018-07-28T10:05:05.291Z,32.40
2018-07-28T10:06:09.505Z,32.40
2018-07-28T10:07:06.344Z,32.40
2018-07-28T10:08:08.353Z,32.40
2018-07-28T10:09:05.452Z,32.40
2018-07-28T10:10:05.673Z,32.40
2018-07-28T10:11:05.057Z,32.40
2018-07-28T10:12:05.952Z,32.40
2018-07-28T10:13:05.462Z,32.40
2018-07-28T10:14:07.599Z,32.40
2018-07-28T10:15:10.088Z,32.40
2018-07-28T10:16:10.273Z,32.40
2018-07-28T10:17:08.359Z,32.30
2018-07-28T10:18:08.220Z,32.30
2018-07-28T10:19:10.519Z,32.30
2018-07-28T10:20:05.975Z,32.30
2018-07-28T10:21:06.097Z,32.30
2018-07-28T10:22:08.230Z,32.40
2018-07-28T10:23:07.629Z,32.40
2018-07-28T10:24:06.389Z,32.40
2018-07-28T10:25:08.395Z,32.50
2018-07-28T10:26:08.293Z,32.50
2018-07-28T10:27:05.648Z,32.50
2018-07-28T10:28:05.111Z,32.40
2018-07-28T10:29:05.720Z,32.40
2018-07-28T10:30:05.418Z,32.40
2018-07-28T10:31:07.680Z,32.40
2018-07-28T10:32:05.992Z,32.40
2018-07-28T10:33:07.990Z,32.50
2018-07-28T10:34:05.331Z,32.50
2018-07-28T10:35:05.087Z,32.60
2018-07-28T10:36:05.719Z,32.70
2018-07-28T10:37:05.669Z,32.80
2018-07-28T10:38:05.165Z,32.90
2018-07-28T10:39:06.270Z,33.00
2018-07-28T10:40:06.252Z,33.00
2018-07-28T10:41:08.169Z,33.10
2018-07-28T10:42:05.650Z,33.00
2018-07-28T10:43:05.342Z,33.00
2018-07-28T10:44:06.072Z,33.10
2018-07-28T10:45:05.562Z,33.00
2018-07-28T10:46:08.501Z,33.10
2018-07-28T10:47:05.919Z,33.10
2018-07-28T10:48:05.185Z,33.10
2018-07-28T10:49:08.642Z,33.10
2018-07-28T10:50:05.942Z,33.00
2018-07-28T10:51:05.505Z,33.00
2018-07-28T10:52:07.953Z,33.00
2018-07-28T10:53:05.371Z,32.90
2018-07-28T10:54:05.773Z,32.90
2018-07-28T10:55:10.655Z,32.80
2018-07-28T10:56:06.003Z,32.80
2018-07-28T10:57:05.071Z,32.80
2018-07-28T10:58:05.104Z,32.80
2018-07-28T10:59:08.152Z,32.90
2018-07-28T11:00:08.141Z,32.80
2018-07-28T11:01:05.741Z,32.80
2018-07-28T11:02:08.072Z,32.80
2018-07-28T11:03:06.495Z,32.80
2018-07-28T11:04:08.061Z,32.80
2018-07-28T11:05:10.519Z,32.80
2018-07-28T11:06:08.386Z,32.90
2018-07-28T11:07:05.805Z,32.80
2018-07-28T11:08:05.343Z,32.90
2018-07-28T11:09:05.489Z,32.90
2018-07-28T11:10:05.414Z,32.90
2018-07-28T11:11:11.177Z,33.00
2018-07-28T11:12:05.569Z,33.10
2018-07-28T11:13:05.163Z,33.10
2018-07-28T11:14:05.808Z,33.20
2018-07-28T11:15:05.666Z,33.30
2018-07-28T11:16:05.214Z,33.40
2018-07-28T11:17:06.123Z,33.40
2018-07-28T11:18:08.436Z,33.50
2018-07-28T11:19:08.579Z,33.60
2018-07-28T11:20:05.728Z,33.50
2018-07-28T11:21:05.288Z,33.60
2018-07-28T11:22:05.884Z,33.70
2018-07-28T11:23:05.704Z,33.70
2018-07-28T11:24:05.517Z,33.90
2018-07-28T11:25:06.017Z,33.90
2018-07-28T11:26:05.930Z,34.10
2018-07-28T11:27:10.798Z,34.00
2018-07-28T11:28:07.638Z,34.20
2018-07-28T11:29:06.242Z,34.20
2018-07-28T11:30:05.759Z,34.20
2018-07-28T11:31:08.196Z,34.30
2018-07-28T11:32:05.877Z,34.30
2018-07-28T11:33:05.845Z,34.40
2018-07-28T11:34:05.323Z,34.40
2018-07-28T11:35:05.862Z,34.40
2018-07-28T11:36:06.535Z,34.50
2018-07-28T11:37:06.115Z,34.40
2018-07-28T11:38:08.168Z,34.40
2018-07-28T11:39:05.448Z,34.40
2018-07-28T11:40:05.910Z,34.30
2018-07-28T11:41:07.732Z,34.20
2018-07-28T11:42:05.304Z,34.20
2018-07-28T11:43:11.034Z,34.20
2018-07-28T11:44:08.358Z,34.20
2018-07-28T11:45:08.433Z,34.20
2018-07-28T11:46:08.453Z,34.30
2018-07-28T11:47:05.913Z,34.30
2018-07-28T11:48:07.987Z,34.40
2018-07-28T11:49:05.382Z,34.40
2018-07-28T11:50:05.875Z,34.50
2018-07-28T11:51:05.624Z,34.50
2018-07-28T11:52:05.048Z,34.60
2018-07-28T11:53:05.926Z,34.70
2018-07-28T11:54:05.430Z,34.70
2018-07-28T11:55:06.251Z,34.80
2018-07-28T11:56:06.030Z,34.70
2018-07-28T11:57:05.658Z,34.70
2018-07-28T11:58:08.098Z,34.60
2018-07-28T11:59:07.007Z,32.90
2018-07-28T12:00:05.484Z,34.60
2018-07-28T12:01:08.629Z,34.40
2018-07-28T12:02:06.204Z,34.40
2018-07-28T12:03:05.897Z,34.40
2018-07-28T12:04:08.108Z,34.30
2018-07-28T12:05:05.499Z,34.30
2018-07-28T12:06:05.433Z,34.30
2018-07-28T12:07:08.591Z,34.20
2018-07-28T12:08:08.502Z,34.10
2018-07-28T12:09:06.038Z,34.10
2018-07-28T12:10:05.663Z,34.00
2018-07-28T12:11:07.751Z,34.00
2018-07-28T12:12:07.744Z,34.00
2018-07-28T12:13:05.160Z,33.90
2018-07-28T12:14:06.134Z,33.90
2018-07-28T12:15:08.205Z,33.90
2018-07-28T12:16:05.755Z,33.90
2018-07-28T12:17:05.612Z,33.90
2018-07-28T12:18:05.264Z,33.80
2018-07-28T12:19:05.780Z,33.80
2018-07-28T12:20:07.824Z,33.90
2018-07-28T12:21:05.896Z,33.90
2018-07-28T12:22:08.088Z,33.90
2018-07-28T12:23:05.645Z,33.90
2018-07-28T12:24:05.299Z,33.90
2018-07-28T12:25:06.088Z,34.00
2018-07-28T12:26:08.299Z,34.00
2018-07-28T12:27:05.681Z,34.00
2018-07-28T12:28:05.525Z,34.10
2018-07-28T12:29:08.407Z,34.10
2018-07-28T12:30:08.395Z,34.10
2018-07-28T12:31:05.910Z,34.10
2018-07-28T12:32:07.940Z,34.10
2018-07-28T12:33:05.358Z,34.10
2018-07-28T12:34:06.176Z,34.00
2018-07-28T12:35:08.069Z,34.00
2018-07-28T12:36:05.433Z,34.00
2018-07-28T12:37:05.123Z,34.00
2018-07-28T12:38:05.778Z,33.90
2018-07-28T12:39:07.745Z,33.90
2018-07-28T12:40:05.152Z,33.90
2018-07-28T12:41:11.043Z,33.90
2018-07-28T12:42:11.039Z,33.90
2018-07-28T12:43:05.470Z,34.00
2018-07-28T12:44:08.502Z,34.00
2018-07-28T12:45:05.859Z,34.00
2018-07-28T12:46:08.084Z,34.10
2018-07-28T12:47:05.676Z,34.10
2018-07-28T12:48:07.747Z,34.10
2018-07-28T12:49:05.922Z,34.10
2018-07-28T12:50:05.370Z,34.20
2018-07-28T12:51:05.183Z,34.20
2018-07-28T12:52:08.232Z,34.20